Aeroporto :







RITROVATECI SU...

 
LOGIN :

Iscrizione | Disclaimer

   EN    FR    IT 

 









Sommario :    VFR   VFR Marginale   IFR   IFR Intensivo   IFR Molto Intensivo
Visibilità : 
Base nubi : 
>= 8 km
>= 3000ft
5 / 8 km
1000 / 3000 ft
1500m / 5 km
500 / 1000 ft
800 / 1500m
200 / 500 ft
< 800m
< 200 ft
Simboli :   Temporali  Nebbia  Neve Forte  Precipitazioni Forti  Vento > 20 kt






- Altitudine del aeroporto : 270 ft
- Codice IATA : YMX


CYMX - Montreal International Mirabel

ULTIMO METAR :
  • 051100Z VRB02KT 45SM SCT090 BKN150 BKN250 16/12 A2992 RMK AC3AC3CI1 SLP132 DENSITY ALT 500FT

METARs OBSOLETI :
  • 051000Z 00000KT 45SM SCT090 BKN130 BKN250 13/12 A2992 RMK AC4AC1CI1 SLP133
  • 050900Z VRB02KT 45SM FEW080 FEW120 FEW250 12/11 A2991 RMK AC1AC1CI1 AC TR AC TR CI TR SLP129
  • 050800Z 23003KT 25SM FEW250 12/11 A2990 RMK CI1 CI TR SLP127

TAF AMD TAF CYMX
Valido dal 05 a 06 ore il 06 a 06 ore UTC


050627Z 0506/0606 VRB03KT P6SM SCT100 BKN240
BECMG 0511/0513 27007KT
FM051500 31007KT P6SM BKN060
FM051800 28007KT P6SM BKN060
TEMPO 0518/0601 P6SM -SHRA VCTS OVC050CB
BECMG 0523/0601 36010KT
FM060400 36005KT P6SM BKN060 RMK NXT FCST BY 051200Z
FIR CZUL / America del Nord



MetMap, La meteo Aeronautica in un colpo d'occhio ! - Copyright ORBIFLY Dicembre 2007 - Disclaimer

ORBIFLY MET'MAP TEAM :

Programmazione e sviluppo : Alexandra Zaïnal
Concezione : Baudouin d'Aumeries
Aiuto per la programmazione : Marc-Olivier Méhu
Supporto tecnico e logistico : Manuel Goepfert
Aiuto per la traduzione : Arnaldo La Scala

Contatto : metmap@orbifly.com




FONTI E CREDITI :

   NOAA